createdAt,value
2019-04-27T00:00:49.711Z,29.87
2019-04-27T00:06:08.639Z,31.85
2019-04-27T00:11:33.204Z,27.37
2019-04-27T00:16:53.621Z,26.68
2019-04-27T00:22:16.544Z,35.03
2019-04-27T00:27:23.450Z,31.73
2019-04-27T00:32:29.505Z,34.80
2019-04-27T00:37:53.056Z,26.37
2019-04-27T00:42:59.239Z,22.37
2019-04-27T00:48:05.466Z,24.75
2019-04-27T00:53:13.269Z,28.47
2019-04-27T00:58:30.571Z,34.65
2019-04-27T01:03:39.937Z,25.50
2019-04-27T01:08:46.235Z,29.82
2019-04-27T01:13:53.758Z,22.62
2019-04-27T01:19:00.096Z,29.82
2019-04-27T01:24:06.300Z,26.62
2019-04-27T01:29:14.860Z,27.93
2019-04-27T01:34:21.337Z,34.53
2019-04-27T01:39:28.960Z,34.95
2019-04-27T01:44:35.475Z,30.08
2019-04-27T01:49:41.557Z,31.85
2019-04-27T01:54:49.397Z,26.27
2019-04-27T01:59:55.485Z,21.40
2019-04-27T02:05:18.881Z,20.65
2019-04-27T02:10:24.728Z,19.50
2019-04-27T02:15:30.889Z,20.77
2019-04-27T02:20:38.775Z,21.15
2019-04-27T02:25:45.095Z,28.10
2019-04-27T02:31:24.142Z,30.30
2019-04-27T02:36:30.680Z,31.55
2019-04-27T02:41:36.872Z,30.88
2019-04-27T02:46:42.979Z,38.70
2019-04-27T02:52:12.414Z,20.82
2019-04-27T02:57:19.805Z,26.10
2019-04-27T03:02:31.379Z,23.42
2019-04-27T03:07:39.857Z,20.77
2019-04-27T03:12:50.105Z,23.40
2019-04-27T03:18:29.710Z,18.75
2019-04-27T03:23:35.227Z,19.70
2019-04-27T03:28:41.630Z,21.42
2019-04-27T03:33:54.787Z,24.05
2019-04-27T03:38:56.387Z,17.35
2019-04-27T03:44:02.866Z,24.10
2019-04-27T03:49:09.812Z,15.65
2019-04-27T03:54:25.485Z,17.27
2019-04-27T03:59:34.321Z,14.05
2019-04-27T04:04:40.780Z,16.20
2019-04-27T04:09:47.163Z,14.38
2019-04-27T04:14:53.589Z,15.60
2019-04-27T04:20:02.061Z,16.67
2019-04-27T04:25:10.727Z,12.10
2019-04-27T04:30:16.352Z,10.18
2019-04-27T04:35:23.364Z,12.75
2019-04-27T04:40:34.833Z,8.18
2019-04-27T04:46:09.813Z,17.37
2019-04-27T04:51:13.790Z,18.95
2019-04-27T04:56:19.828Z,15.90
2019-04-27T05:01:26.097Z,22.77
2019-04-27T05:06:32.186Z,27.87
2019-04-27T05:11:39.626Z,20.35
2019-04-27T05:16:46.196Z,26.30
2019-04-27T05:21:52.398Z,32.05
2019-04-27T05:26:59.157Z,47.48
2019-04-27T05:32:05.305Z,43.30
2019-04-27T05:37:11.240Z,51.63
2019-04-27T05:42:19.972Z,48.08
2019-04-27T05:47:48.512Z,48.65
2019-04-27T05:52:53.149Z,46.15
2019-04-27T05:57:59.351Z,43.95
2019-04-27T06:03:05.759Z,40.52
2019-04-27T06:08:11.908Z,36.50
2019-04-27T06:13:18.984Z,37.53
2019-04-27T06:18:25.258Z,37.08
2019-04-27T06:23:31.694Z,42.00
2019-04-27T06:28:39.603Z,38.25
2019-04-27T06:33:45.338Z,30.75
2019-04-27T06:38:51.561Z,34.05
2019-04-27T06:43:59.215Z,40.75
2019-04-27T06:49:05.490Z,31.07
2019-04-27T06:54:11.671Z,36.63
2019-04-27T06:59:20.134Z,34.13
2019-04-27T07:04:26.234Z,33.83
2019-04-27T07:09:32.392Z,28.30
2019-04-27T07:14:52.004Z,31.48
2019-04-27T07:19:46.681Z,28.80
2019-04-27T07:24:53.006Z,26.05
2019-04-27T07:30:01.575Z,28.40
2019-04-27T07:35:09.592Z,43.60
2019-04-27T07:40:15.613Z,37.15
2019-04-27T07:45:35.042Z,38.98
2019-04-27T07:50:41.086Z,39.55
2019-04-27T07:55:47.293Z,40.88
2019-04-27T08:00:53.800Z,52.80
2019-04-27T08:06:00.052Z,49.35
2019-04-27T08:11:06.238Z,56.75
2019-04-27T08:16:12.519Z,48.52
2019-04-27T08:21:18.921Z,53.48
2019-04-27T08:26:31.127Z,45.03
2019-04-27T08:31:41.682Z,47.05
2019-04-27T08:36:49.836Z,42.53
2019-04-27T08:41:56.112Z,38.67
2019-04-27T08:47:02.538Z,40.48
2019-04-27T08:52:09.364Z,32.38
2019-04-27T08:57:15.677Z,37.67
2019-04-27T09:02:22.005Z,28.52
2019-04-27T09:07:35.401Z,36.48
2019-04-27T09:13:09.501Z,29.27
2019-04-27T09:18:19.215Z,30.60
2019-04-27T09:23:25.488Z,26.10
2019-04-27T09:28:31.798Z,23.47
2019-04-27T09:33:37.844Z,31.40
2019-04-27T09:38:43.833Z,28.05
2019-04-27T09:43:50.041Z,27.05
2019-04-27T09:48:56.581Z,35.38
2019-04-27T09:54:02.825Z,23.65
2019-04-27T09:59:09.097Z,23.40
2019-04-27T10:04:15.669Z,20.27
2019-04-27T10:09:23.522Z,27.75
2019-04-27T10:14:29.689Z,16.67
2019-04-27T10:19:36.578Z,20.30
2019-04-27T10:24:43.181Z,17.17
2019-04-27T10:29:49.241Z,20.77
2019-04-27T10:34:55.388Z,21.02
2019-04-27T10:40:01.508Z,22.93
2019-04-27T10:45:09.665Z,24.75
2019-04-27T10:50:16.156Z,23.85
2019-04-27T10:55:22.655Z,19.02
2019-04-27T11:00:40.558Z,16.07
2019-04-27T11:06:05.923Z,19.57
2019-04-27T11:11:12.232Z,17.20
2019-04-27T11:16:18.225Z,16.30
2019-04-27T11:21:26.123Z,20.43
2019-04-27T11:26:32.887Z,23.50
2019-04-27T11:31:39.214Z,20.23
2019-04-27T11:37:10.212Z,19.67
2019-04-27T11:42:16.295Z,22.80
2019-04-27T11:47:22.505Z,18.90
2019-04-27T11:52:28.782Z,17.30
2019-04-27T11:57:35.770Z,15.78
2019-04-27T12:02:42.985Z,15.55
2019-04-27T12:07:49.150Z,20.37
2019-04-27T12:12:56.285Z,20.77
2019-04-27T12:18:02.632Z,23.27
2019-04-27T12:23:08.794Z,15.43
2019-04-27T12:28:36.813Z,16.82
2019-04-27T12:33:42.967Z,22.98
2019-04-27T12:38:49.132Z,20.35
2019-04-27T12:43:56.048Z,24.63
2019-04-27T12:49:02.533Z,18.95
2019-04-27T12:54:16.156Z,15.03
2019-04-27T12:59:40.194Z,13.15
2019-04-27T13:04:46.785Z,21.75
2019-04-27T13:09:53.009Z,21.73
2019-04-27T13:14:59.369Z,19.55
2019-04-27T13:20:06.375Z,12.90
2019-04-27T13:25:12.831Z,17.17
2019-04-27T13:30:19.613Z,20.10
2019-04-27T13:35:25.977Z,18.45
2019-04-27T13:40:35.732Z,15.55
2019-04-27T13:46:15.818Z,21.52
2019-04-27T13:51:41.576Z,22.48
2019-04-27T13:56:47.913Z,22.35
2019-04-27T14:01:54.261Z,18.67
2019-04-27T14:07:00.758Z,22.65
2019-04-27T14:12:22.025Z,18.95
2019-04-27T14:17:29.359Z,17.40
2019-04-27T14:22:35.654Z,22.67
2019-04-27T14:27:42.009Z,21.55
2019-04-27T14:32:48.098Z,16.48
2019-04-27T14:37:54.293Z,14.05
2019-04-27T14:43:00.402Z,22.77
2019-04-27T14:48:08.308Z,22.15
2019-04-27T14:53:14.688Z,21.12
2019-04-27T14:58:20.906Z,18.23
2019-04-27T15:03:27.249Z,20.00
2019-04-27T15:08:34.107Z,21.23
2019-04-27T15:13:43.029Z,26.17
2019-04-27T15:18:53.557Z,27.77
2019-04-27T15:24:02.446Z,26.00
2019-04-27T15:29:08.934Z,24.18
2019-04-27T15:34:40.062Z,20.02
2019-04-27T15:40:10.034Z,21.57
2019-04-27T15:45:15.861Z,19.07
2019-04-27T15:50:23.443Z,23.52
2019-04-27T15:55:34.550Z,22.90
2019-04-27T16:00:38.266Z,18.48
2019-04-27T16:05:44.609Z,17.12
2019-04-27T16:10:50.870Z,24.75
2019-04-27T16:15:58.436Z,24.12
2019-04-27T16:21:07.169Z,20.60
2019-04-27T16:26:14.936Z,19.00
2019-04-27T16:31:24.955Z,23.47
2019-04-27T16:36:29.259Z,17.87
2019-04-27T16:41:37.462Z,22.95
2019-04-27T16:46:43.326Z,15.50
2019-04-27T16:51:49.596Z,24.25
2019-04-27T16:57:04.021Z,20.43
2019-04-27T17:02:03.822Z,22.40
2019-04-27T17:07:11.265Z,21.70
2019-04-27T17:12:18.464Z,26.85
2019-04-27T17:17:38.662Z,25.52
2019-04-27T17:22:49.355Z,21.10
2019-04-27T17:28:04.148Z,18.35
2019-04-27T17:33:21.149Z,26.40
2019-04-27T17:38:28.688Z,20.30
2019-04-27T17:43:37.477Z,18.20
2019-04-27T17:48:42.445Z,18.37
2019-04-27T17:53:50.029Z,24.47
2019-04-27T17:58:58.422Z,22.42
2019-04-27T18:04:06.457Z,30.80
2019-04-27T18:09:19.113Z,21.23
2019-04-27T18:14:25.381Z,24.10
2019-04-27T18:19:44.283Z,25.95
2019-04-27T18:25:03.273Z,26.93
2019-04-27T18:30:28.185Z,31.52
2019-04-27T18:35:34.260Z,33.28
2019-04-27T18:40:40.703Z,31.80
2019-04-27T18:45:48.499Z,27.77
2019-04-27T18:51:01.710Z,26.02
2019-04-27T18:56:10.331Z,28.23
2019-04-27T19:01:15.857Z,29.65
2019-04-27T19:06:21.940Z,37.83
2019-04-27T19:11:29.064Z,40.98
2019-04-27T19:16:35.134Z,37.65
2019-04-27T19:21:41.734Z,25.30
2019-04-27T19:27:16.137Z,24.87
2019-04-27T19:32:15.192Z,29.87
2019-04-27T19:37:21.341Z,25.68
2019-04-27T19:42:28.589Z,21.35
2019-04-27T19:47:34.693Z,30.43
2019-04-27T19:52:40.623Z,31.10
2019-04-27T19:57:46.907Z,25.23
2019-04-27T20:02:53.133Z,22.25
2019-04-27T20:08:01.919Z,28.35
2019-04-27T20:13:08.026Z,23.42
2019-04-27T20:18:14.106Z,29.02
2019-04-27T20:23:22.246Z,24.70
2019-04-27T20:28:28.304Z,30.37
2019-04-27T20:33:34.274Z,35.63
2019-04-27T20:38:41.864Z,27.80
2019-04-27T20:43:48.421Z,27.75
2019-04-27T20:48:54.637Z,28.50
2019-04-27T20:54:01.772Z,28.77
2019-04-27T20:59:07.899Z,27.58
2019-04-27T21:04:15.298Z,22.62
2019-04-27T21:09:21.440Z,28.75
2019-04-27T21:14:27.601Z,24.52
2019-04-27T21:19:33.746Z,33.92
2019-04-27T21:24:41.346Z,28.65
2019-04-27T21:29:47.445Z,29.23
2019-04-27T21:34:53.549Z,26.70
2019-04-27T21:40:17.512Z,27.35
2019-04-27T21:45:23.961Z,26.27
2019-04-27T21:50:31.402Z,30.60
2019-04-27T21:55:37.760Z,36.03
2019-04-27T22:01:01.890Z,25.30
2019-04-27T22:06:08.229Z,24.00
2019-04-27T22:11:14.522Z,26.93
2019-04-27T22:16:21.290Z,19.67
2019-04-27T22:21:27.654Z,25.27
2019-04-27T22:26:34.074Z,26.23
2019-04-27T22:31:41.508Z,28.55
2019-04-27T22:36:47.766Z,24.20
2019-04-27T22:42:12.729Z,29.48
2019-04-27T22:47:21.618Z,22.10
2019-04-27T22:52:27.785Z,28.92
2019-04-27T22:57:43.869Z,21.75
2019-04-27T23:03:02.333Z,26.42
2019-04-27T23:08:08.888Z,28.92
2019-04-27T23:13:15.263Z,25.17
2019-04-27T23:18:22.668Z,24.92
2019-04-27T23:23:30.900Z,28.40
2019-04-27T23:28:36.765Z,23.35
2019-04-27T23:33:46.329Z,26.87
2019-04-27T23:38:52.689Z,34.08
2019-04-27T23:43:58.941Z,27.70
2019-04-27T23:49:05.139Z,23.98
2019-04-27T23:54:11.644Z,27.50
2019-04-27T23:59:24.735Z,31.10
